KDVT/DVT METAR and TAF weather

Enter ICAO airport designator
Station Type Date Time Source
KDVT METAR 2018/07/21 22:53 UTC NOAA

KDVT 212253Z AUTO 23013KT 200V270 10SM CLR 38/16 A2989 RMK AO2 SLP091 T03780161


Station Type Date Time Source
KDVT Decoded METAR 2018/07/21 22:53 UTC NOAA

PHOENIX-DEER VALLEY MUN, AZ, United States (KDVT) 33-41N 112-04W 443M
Jul 21, 2018 - 06:53 PM EDT / 2018.07.21 2253 UTC
Wind: from the SW (230 degrees) at 15 MPH (13 KT) (direction variable):0
Visibility: 10 mile(s):0
Sky conditions: clear
Temperature: 100.0 F (37.8 C)
Heat index: 100.6 F (38.1 C):1
Dew Point: 61.0 F (16.1 C)
Relative Humidity: 27%
Pressure (altimeter): 29.89 in. Hg (1012 hPa)
ob: KDVT 212253Z AUTO 23013KT 200V270 10SM CLR 38/16 A2989 RMK AO2 SLP091 T03780161
cycle: 23

Station Type Date Time Source
KDVT TAF UTC NOAA

Error!


Example: see airport list